Aeroporto :
LOGIN :

Iscrizione | Disclaimer

   EN    FR    IT 

 










Sommario :    VFR   VFR Marginale   IFR   IFR Intensivo   IFR Molto Intensivo
Visibilità : 
Base nubi : 
>= 8 km
>= 3000ft
5 / 8 km
1000 / 3000 ft
1500m / 5 km
500 / 1000 ft
800 / 1500m
200 / 500 ft
< 800m
< 200 ft
Simboli :   Temporali  Nebbia  Neve Forte  Precipitazioni Forti  Vento > 20 kt
SIGMETs :   Varie  Temporali  Ghiacco  Turbolenza  Onda orograficha  Ceneri Vulcaniche







- Altitudine del aeroporto : 538 ft
- Codice IATA : TNF
- Carte del aeroporto


LFPN - Toussus Le Noble

ULTIMO METAR :
  • 211900Z AUTO 11004KT CAVOK 22/11 Q1009 NOSIG

METARs OBSOLETI :
  • 211830Z AUTO 12005KT CAVOK 23/12 Q1009 NOSIG
  • 211800Z AUTO 13006KT CAVOK 25/12 Q1009 NOSIG
  • 211730Z AUTO 14007KT CAVOK 26/12 Q1009 NOSIG
  • 211700Z AUTO 14009KT CAVOK 27/12 Q1009 NOSIG
  • 211630Z AUTO 14009KT 110V180 CAVOK 27/12 Q1009 NOSIG
  • 211600Z AUTO 14011KT CAVOK 27/12 Q1010 NOSIG

TAF TAF LFPN
Valido dal 21 a 18 ore il 22 a 03 ore UTC


211700Z 2118/2203 15010KT CAVOK
ATIS : +33 1 39 56 54 70
Nessun NOTAM noto per questo aeroporto.



MetMap, La meteo Aeronautica in un colpo d'occhio ! - Copyright ORBIFLY Dicembre 2007 - Disclaimer

ORBIFLY MET'MAP TEAM :

Programmazione e sviluppo : Alexandra Zaïnal
Concezione e sviluppo : Baudouin d'Aumeries
Co-Programmazione e sviluppo : Marc-Olivier Méhu
Supporto tecnico e logistico : Manuel Goepfert
Aiuto per la traduzione : Arnaldo La Scala

Contatto : metmap@orbifly.com




FONTI E CREDITI :

   NOAA